Time;durP1;ratioP1;P1;durP2;ratioP2;P2;SDS_P1;SDS_P2;PMS_P1;PMS_P2;Temp;Humidity;BMP_temperature;BMP_pressure;BME280_temperature;BME280_humidity;BME280_pressure;Samples;Min_cycle;Max_cycle;Signal;HPM_P1;HPM_P2
2022/09/08 00:00:24;;;;;;;;;;;18.90;99.20;;;;;;5089304;28;20041;-71
2022/09/08 00:02:51;;;;;;;;;;;19.10;98.80;;;;;;5089508;28;19973;-71
2022/09/08 00:05:19;;;;;;;;;;;19.20;98.20;;;;;;5089940;28;20322;-70
2022/09/08 00:07:47;;;;;;;;;;;19.20;97.80;;;;;;5089293;28;19920;-70
2022/09/08 00:10:14;;;;;;;;;;;19.30;97.00;;;;;;5090207;28;19908;-70
2022/09/08 00:12:41;;;;;;;;;;;19.20;97.00;;;;;;5089972;28;19912;-73
2022/09/08 00:15:11;;;;;;;;;;;19.30;96.90;;;;;;5089543;28;19913;-70
2022/09/08 00:17:38;;;;;;;;;;;19.10;96.80;;;;;;5089788;28;19935;-72
2022/09/08 00:20:06;;;;;;;;;;;19.10;97.10;;;;;;5090067;28;19909;-71
2022/09/08 00:22:33;;;;;;;;;;;19.20;97.50;;;;;;5089608;28;19961;-70
2022/09/08 00:25:00;;;;;;;;;;;19.10;97.00;;;;;;5070788;28;20384;-72
2022/09/08 00:27:26;;;;;;;;;;;19.00;97.30;;;;;;5089109;28;20015;-72
2022/09/08 00:29:53;;;;;;;;;;;19.00;97.50;;;;;;5071468;28;20237;-73
2022/09/08 00:32:20;;;;;;;;;;;19.10;98.00;;;;;;5088719;28;20340;-72
2022/09/08 00:34:47;;;;;;;;;;;19.00;97.90;;;;;;5071258;28;20337;-72
2022/09/08 00:37:14;;;;;;;;;;;19.00;96.80;;;;;;5089096;28;19988;-72
2022/09/08 00:39:41;;;;;;;;;;;19.00;96.10;;;;;;5089170;28;19957;-72
2022/09/08 00:42:08;;;;;;;;;;;18.80;96.00;;;;;;5089787;28;19927;-72
2022/09/08 00:44:51;;;;;;;;;;;18.90;96.60;;;;;;5091665;28;19920;-73
2022/09/08 00:47:25;;;;;;;;;;;19.00;96.90;;;;;;5092464;28;20053;-73
2022/09/08 00:50:02;;;;;;;;;;;19.20;97.20;;;;;;5093147;28;19943;-72
2022/09/08 00:52:32;;;;;;;;;;;19.30;97.60;;;;;;5092634;28;19908;-72
2022/09/08 00:55:00;;;;;;;;;;;19.20;97.60;;;;;;5092534;28;19908;-72
2022/09/08 00:57:26;;;;;;;;;;;19.20;97.70;;;;;;5089178;28;19920;-74
2022/09/08 00:59:53;;;;;;;;;;;19.30;97.60;;;;;;5080026;28;19916;-74
2022/09/08 01:02:24;;;;;;;;;;;19.30;97.80;;;;;;5092034;28;19923;-74
2022/09/08 01:05:10;;;;;;;;;;;19.30;98.20;;;;;;5090247;28;19919;-73
2022/09/08 01:13:12;;;;;;;;;;;19.50;97.80;;;;;;5072271;28;20039;-72
2022/09/08 01:15:40;;;;;;;;;;;19.60;97.30;;;;;;5072057;28;19909;-74
2022/09/08 01:18:06;;;;;;;;;;;19.70;97.40;;;;;;5071489;28;19920;-73
2022/09/08 01:20:33;;;;;;;;;;;20.00;97.50;;;;;;5072127;28;20007;-72
2022/09/08 01:23:03;;;;;;;;;;;20.10;96.70;;;;;;5071610;28;19912;-73
2022/09/08 01:25:47;;;;;;;;;;;20.00;96.10;;;;;;5071798;28;19969;-73
2022/09/08 01:28:21;;;;;;;;;;;19.90;96.50;;;;;;5070712;28;20464;-72
2022/09/08 01:30:49;;;;;;;;;;;20.00;96.00;;;;;;5071884;28;19908;-73
2022/09/08 01:33:16;;;;;;;;;;;20.20;95.80;;;;;;5071669;28;20352;-73
2022/09/08 01:35:44;;;;;;;;;;;20.30;95.30;;;;;;5071776;28;20373;-74
2022/09/08 01:38:11;;;;;;;;;;;20.40;95.30;;;;;;5071465;28;20465;-73
2022/09/08 01:40:38;;;;;;;;;;;20.50;95.40;;;;;;5071942;28;20375;-71
2022/09/08 01:43:08;;;;;;;;;;;20.40;95.40;;;;;;5070496;28;19920;-73
2022/09/08 01:45:38;;;;;;;;;;;20.30;95.80;;;;;;5071251;28;20012;-72
2022/09/08 01:48:05;;;;;;;;;;;20.40;95.90;;;;;;5069075;28;19995;-72
2022/09/08 01:50:33;;;;;;;;;;;20.40;95.90;;;;;;5071549;28;19909;-71
2022/09/08 01:53:00;;;;;;;;;;;20.40;95.70;;;;;;5052725;28;20357;-72
2022/09/08 01:55:26;;;;;;;;;;;20.60;96.20;;;;;;5070408;28;19912;-72
2022/09/08 01:57:53;;;;;;;;;;;20.60;96.00;;;;;;5062639;28;19931;-73
2022/09/08 02:00:20;;;;;;;;;;;20.70;95.80;;;;;;5072016;28;19912;-72
2022/09/08 02:02:46;;;;;;;;;;;20.80;96.10;;;;;;5071806;28;19912;-73
2022/09/08 02:05:13;;;;;;;;;;;21.00;95.70;;;;;;5071786;28;20379;-73
2022/09/08 02:07:40;;;;;;;;;;;20.90;96.10;;;;;;5063112;28;20356;-72
2022/09/08 02:10:10;;;;;;;;;;;21.10;96.00;;;;;;5070264;28;20204;-73
2022/09/08 02:12:37;;;;;;;;;;;21.10;95.90;;;;;;5069628;28;19920;-74
2022/09/08 02:15:04;;;;;;;;;;;21.20;95.80;;;;;;5071619;28;19924;-72
2022/09/08 02:17:31;;;;;;;;;;;21.20;95.90;;;;;;5063181;28;19974;-73
2022/09/08 02:19:57;;;;;;;;;;;21.20;95.60;;;;;;5070492;28;19970;-72
2022/09/08 02:22:26;;;;;;;;;;;21.10;96.20;;;;;;5070131;28;19934;-75
2022/09/08 02:24:52;;;;;;;;;;;21.30;95.70;;;;;;5052355;28;19935;-72
2022/09/08 02:27:19;;;;;;;;;;;21.50;95.60;;;;;;5059158;28;19928;-73
2022/09/08 02:29:46;;;;;;;;;;;21.60;95.10;;;;;;5064705;28;20288;-73
2022/09/08 02:32:12;;;;;;;;;;;21.70;94.90;;;;;;5071351;28;19909;-73
2022/09/08 02:34:39;;;;;;;;;;;21.70;94.80;;;;;;5069271;28;19958;-74
2022/09/08 02:37:06;;;;;;;;;;;21.90;94.70;;;;;;5060879;28;19909;-74
2022/09/08 02:39:32;;;;;;;;;;;22.00;94.40;;;;;;5052718;28;19909;-71
2022/09/08 02:41:59;;;;;;;;;;;22.30;94.10;;;;;;5070752;28;20375;-72
2022/09/08 02:44:26;;;;;;;;;;;22.60;93.60;;;;;;5070109;28;20057;-71
2022/09/08 02:46:53;;;;;;;;;;;22.80;93.50;;;;;;5067740;28;20017;-74
2022/09/08 02:49:20;;;;;;;;;;;22.70;93.50;;;;;;5070096;28;19928;-74
2022/09/08 02:51:47;;;;;;;;;;;22.90;92.90;;;;;;5071045;28;19913;-72
2022/09/08 02:54:13;;;;;;;;;;;23.20;92.70;;;;;;5070442;28;20378;-73
2022/09/08 02:56:40;;;;;;;;;;;23.70;91.80;;;;;;5069679;28;19919;-73
2022/09/08 02:59:07;;;;;;;;;;;23.60;91.80;;;;;;5070574;28;20319;-72
2022/09/08 03:01:33;;;;;;;;;;;23.80;91.30;;;;;;5070759;28;19919;-73
2022/09/08 03:04:01;;;;;;;;;;;24.20;91.40;;;;;;5070747;28;19908;-72
2022/09/08 03:06:27;;;;;;;;;;;24.40;90.20;;;;;;5065177;28;19917;-73
2022/09/08 03:08:54;;;;;;;;;;;24.40;90.20;;;;;;5050001;28;19991;-71
2022/09/08 03:11:20;;;;;;;;;;;24.60;89.80;;;;;;5043104;28;20317;-72
2022/09/08 03:13:47;;;;;;;;;;;24.60;90.00;;;;;;5069984;28;20291;-73
2022/09/08 03:16:14;;;;;;;;;;;24.40;90.00;;;;;;5069664;28;19909;-73
2022/09/08 03:18:40;;;;;;;;;;;24.40;89.70;;;;;;5069891;28;19959;-72
2022/09/08 03:21:09;;;;;;;;;;;24.20;90.10;;;;;;5070228;28;19966;-71
2022/09/08 03:23:36;;;;;;;;;;;24.10;90.10;;;;;;5069847;28;20341;-71
2022/09/08 03:26:04;;;;;;;;;;;24.80;89.40;;;;;;5068710;28;20388;-71
2022/09/08 03:28:31;;;;;;;;;;;25.20;87.60;;;;;;5053772;28;19913;-72
2022/09/08 03:30:58;;;;;;;;;;;25.50;86.80;;;;;;5070380;28;19963;-71
2022/09/08 03:33:25;;;;;;;;;;;25.80;85.00;;;;;;5070402;28;19916;-72
2022/09/08 03:35:51;;;;;;;;;;;25.80;85.00;;;;;;5069628;28;20217;-72
2022/09/08 03:38:18;;;;;;;;;;;25.60;84.20;;;;;;5050677;28;19924;-72
2022/09/08 03:40:45;;;;;;;;;;;25.30;84.00;;;;;;5066640;28;19916;-71
2022/09/08 03:43:11;;;;;;;;;;;25.00;84.70;;;;;;5043100;28;19921;-69
2022/09/08 03:45:43;;;;;;;;;;;24.20;85.80;;;;;;5067979;28;20000;-72
2022/09/08 03:48:10;;;;;;;;;;;23.60;87.00;;;;;;5069027;28;19922;-74
2022/09/08 03:50:37;;;;;;;;;;;22.90;89.60;;;;;;5069077;28;19919;-72
2022/09/08 03:53:04;;;;;;;;;;;22.90;90.50;;;;;;5069768;28;19988;-71
2022/09/08 03:55:31;;;;;;;;;;;22.90;90.20;;;;;;5069919;28;19978;-72
2022/09/08 03:57:59;;;;;;;;;;;22.60;90.40;;;;;;5052328;28;19908;-70
2022/09/08 04:00:26;;;;;;;;;;;22.40;90.70;;;;;;5048235;28;19916;-71
2022/09/08 04:02:52;;;;;;;;;;;22.20;91.30;;;;;;5048274;28;19909;-71
2022/09/08 04:05:19;;;;;;;;;;;22.00;92.30;;;;;;5048177;28;19909;-72
2022/09/08 04:07:46;;;;;;;;;;;21.90;92.10;;;;;;5047861;28;20029;-72
2022/09/08 04:10:13;;;;;;;;;;;21.80;92.50;;;;;;5047814;28;19928;-73
2022/09/08 04:12:40;;;;;;;;;;;21.70;92.80;;;;;;5047725;28;19928;-73
2022/09/08 04:15:08;;;;;;;;;;;21.60;93.10;;;;;;5031110;28;19928;-71
2022/09/08 04:17:36;;;;;;;;;;;21.60;93.10;;;;;;5050832;28;20363;-73
2022/09/08 04:20:03;;;;;;;;;;;21.60;93.20;;;;;;5070271;28;19909;-73
2022/09/08 04:22:29;;;;;;;;;;;21.80;92.70;;;;;;5073361;28;19909;-73
2022/09/08 04:24:56;;;;;;;;;;;22.00;92.20;;;;;;5072904;28;20379;-72
2022/09/08 04:27:23;;;;;;;;;;;21.90;92.00;;;;;;5061297;28;19917;-73
2022/09/08 04:29:50;;;;;;;;;;;22.00;91.80;;;;;;5073774;28;19931;-71
2022/09/08 04:32:17;;;;;;;;;;;22.10;91.90;;;;;;5055635;28;20378;-71
2022/09/08 04:34:44;;;;;;;;;;;22.10;91.70;;;;;;5073337;28;20000;-71
2022/09/08 04:37:10;;;;;;;;;;;22.10;91.80;;;;;;5062872;28;20679;-71
2022/09/08 04:39:37;;;;;;;;;;;22.20;91.30;;;;;;5053427;28;19911;-71
2022/09/08 04:42:04;;;;;;;;;;;22.10;91.10;;;;;;5053499;28;19920;-71
2022/09/08 04:44:31;;;;;;;;;;;22.00;91.40;;;;;;5053371;28;19913;-71
2022/09/08 04:46:58;;;;;;;;;;;22.10;91.30;;;;;;5061392;28;19920;-72
2022/09/08 04:49:25;;;;;;;;;;;22.20;91.10;;;;;;5073578;28;19915;-72
2022/09/08 04:51:52;;;;;;;;;;;22.70;91.00;;;;;;5073300;28;20344;-72
2022/09/08 04:54:19;;;;;;;;;;;23.20;90.50;;;;;;5073042;28;20276;-72
2022/09/08 04:56:45;;;;;;;;;;;23.50;90.40;;;;;;5072734;28;19909;-73
2022/09/08 04:59:12;;;;;;;;;;;24.00;89.60;;;;;;5073050;28;20320;-73
2022/09/08 05:01:39;;;;;;;;;;;24.50;88.10;;;;;;5073249;28;20341;-73
2022/09/08 05:04:06;;;;;;;;;;;24.70;86.20;;;;;;5071792;28;19923;-74
2022/09/08 05:06:33;;;;;;;;;;;24.60;87.40;;;;;;5069553;28;20588;-70
2022/09/08 05:09:00;;;;;;;;;;;24.60;87.30;;;;;;5072346;28;20025;-73
2022/09/08 05:11:28;;;;;;;;;;;24.50;86.90;;;;;;5072695;28;20011;-72
2022/09/08 05:13:56;;;;;;;;;;;24.10;88.40;;;;;;5066077;28;19912;-73
2022/09/08 05:16:24;;;;;;;;;;;24.00;88.40;;;;;;5068224;28;19913;-73
2022/09/08 05:18:55;;;;;;;;;;;23.70;90.10;;;;;;5071825;28;19920;-73
2022/09/08 05:21:22;;;;;;;;;;;23.50;89.70;;;;;;5071166;28;19915;-70
2022/09/08 05:23:52;;;;;;;;;;;23.30;90.70;;;;;;5052792;28;20019;-71
2022/09/08 05:26:20;;;;;;;;;;;23.10;90.80;;;;;;5059879;28;19960;-74
2022/09/08 05:28:47;;;;;;;;;;;22.90;91.50;;;;;;5051589;28;19917;-72
2022/09/08 05:31:16;;;;;;;;;;;22.90;91.60;;;;;;5052343;28;20443;-74
2022/09/08 05:33:43;;;;;;;;;;;23.00;91.80;;;;;;5066828;28;19913;-73
2022/09/08 05:36:15;;;;;;;;;;;23.20;91.20;;;;;;5069205;28;19908;-70
2022/09/08 05:38:41;;;;;;;;;;;23.30;91.30;;;;;;5066244;28;20427;-72
2022/09/08 05:41:09;;;;;;;;;;;23.40;91.30;;;;;;5070687;28;20304;-72
2022/09/08 05:43:37;;;;;;;;;;;23.50;91.30;;;;;;5070564;28;19919;-71
2022/09/08 05:46:04;;;;;;;;;;;23.60;90.90;;;;;;5069033;28;19916;-72
2022/09/08 05:48:30;;;;;;;;;;;23.40;91.40;;;;;;5068110;28;19912;-71
2022/09/08 05:50:58;;;;;;;;;;;23.50;91.10;;;;;;5071211;28;19916;-71
2022/09/08 05:53:25;;;;;;;;;;;23.40;91.30;;;;;;5070760;28;19923;-68
2022/09/08 05:55:57;;;;;;;;;;;23.20;91.80;;;;;;5067331;28;19909;-69
2022/09/08 05:58:23;;;;;;;;;;;23.00;92.30;;;;;;5051373;28;20368;-68
2022/09/08 06:00:57;;;;;;;;;;;22.70;92.70;;;;;;5071365;28;19912;-73
2022/09/08 06:03:24;;;;;;;;;;;22.50;93.10;;;;;;5062751;28;19935;-72
2022/09/08 06:05:51;;;;;;;;;;;22.10;94.20;;;;;;5071223;28;19988;-70
2022/09/08 06:08:20;;;;;;;;;;;21.90;94.60;;;;;;5070902;28;20007;-72
2022/09/08 06:10:51;;;;;;;;;;;21.60;94.70;;;;;;5070362;28;19928;-70
2022/09/08 06:13:21;;;;;;;;;;;21.20;95.30;;;;;;5070703;28;20299;-72
2022/09/08 06:15:48;;;;;;;;;;;21.00;95.60;;;;;;5067101;28;19981;-74
2022/09/08 06:18:16;;;;;;;;;;;20.60;96.10;;;;;;5063540;28;20008;-71
2022/09/08 06:20:43;;;;;;;;;;;20.40;96.40;;;;;;5050332;28;19912;-71
2022/09/08 06:23:11;;;;;;;;;;;20.20;96.90;;;;;;5056049;28;19917;-71
2022/09/08 06:25:42;;;;;;;;;;;20.00;97.50;;;;;;5047779;28;19913;-69
2022/09/08 06:28:17;;;;;;;;;;;19.80;97.90;;;;;;5050565;28;20387;-70
2022/09/08 06:30:46;;;;;;;;;;;19.60;98.20;;;;;;5068879;28;20098;-71
2022/09/08 06:33:15;;;;;;;;;;;19.60;98.30;;;;;;5068421;28;19923;-70
2022/09/08 06:35:42;;;;;;;;;;;19.60;98.20;;;;;;5067897;28;19912;-69
2022/09/08 06:38:16;;;;;;;;;;;19.50;98.50;;;;;;5069246;28;20403;-70
2022/09/08 06:40:45;;;;;;;;;;;19.40;98.50;;;;;;5068947;28;20285;-72
2022/09/08 06:43:14;;;;;;;;;;;19.30;98.60;;;;;;5068603;28;19936;-68
2022/09/08 06:45:45;;;;;;;;;;;19.30;98.90;;;;;;5066309;28;20292;-71
2022/09/08 06:48:12;;;;;;;;;;;19.30;98.70;;;;;;5066229;28;19928;-70
2022/09/08 06:50:41;;;;;;;;;;;19.40;98.10;;;;;;5067240;28;20471;-71
2022/09/08 06:53:11;;;;;;;;;;;19.40;97.80;;;;;;5068207;28;20002;-70
2022/09/08 06:55:42;;;;;;;;;;;19.30;97.40;;;;;;5066253;28;19985;-69
2022/09/08 06:58:24;;;;;;;;;;;19.30;97.30;;;;;;5064962;28;20295;-69
2022/09/08 07:00:53;;;;;;;;;;;19.20;97.70;;;;;;5032103;28;19920;-71
2022/09/08 07:03:26;;;;;;;;;;;19.10;97.90;;;;;;5045797;28;20293;-69
2022/09/08 07:06:04;;;;;;;;;;;19.00;98.30;;;;;;5069391;28;19909;-70
2022/09/08 07:08:31;;;;;;;;;;;19.00;98.60;;;;;;5064861;28;19920;-71
2022/09/08 07:11:02;;;;;;;;;;;18.80;99.00;;;;;;5067003;28;19909;-69
2022/09/08 07:13:37;;;;;;;;;;;18.80;99.30;;;;;;5069122;28;19948;-70
2022/09/08 07:16:10;;;;;;;;;;;18.80;99.40;;;;;;5068602;28;20011;-70
2022/09/08 07:18:55;;;;;;;;;;;18.70;99.70;;;;;;5058449;28;19924;-71
2022/09/08 07:21:53;;;;;;;;;;;18.70;99.90;;;;;;5058428;28;19908;-70
2022/09/08 07:24:23;;;;;;;;;;;18.60;99.90;;;;;;5039593;28;20026;-70
2022/09/08 07:26:49;;;;;;;;;;;18.60;99.90;;;;;;5063571;28;19965;-71
2022/09/08 07:29:42;;;;;;;;;;;18.50;99.90;;;;;;5063157;28;19956;-71
2022/09/08 07:32:23;;;;;;;;;;;18.40;99.90;;;;;;5056643;28;19962;-72
2022/09/08 07:34:54;;;;;;;;;;;18.30;99.90;;;;;;5059401;28;19918;-71
2022/09/08 07:37:38;;;;;;;;;;;18.20;99.90;;;;;;5058775;28;20387;-70
2022/09/08 07:40:18;;;;;;;;;;;18.20;99.90;;;;;;5059463;28;19985;-71
2022/09/08 07:42:57;;;;;;;;;;;18.20;99.90;;;;;;5059409;28;19912;-70
2022/09/08 07:45:33;;;;;;;;;;;18.10;99.90;;;;;;5061871;28;19909;-69
2022/09/08 07:48:11;;;;;;;;;;;18.10;99.90;;;;;;5065797;28;19925;-69
2022/09/08 07:50:56;;;;;;;;;;;18.00;99.90;;;;;;5048229;28;19943;-71
2022/09/08 07:53:29;;;;;;;;;;;18.00;99.90;;;;;;5038156;28;19912;-70
2022/09/08 07:55:59;;;;;;;;;;;17.90;99.90;;;;;;5063712;28;19995;-72
2022/09/08 07:58:58;;;;;;;;;;;18.00;99.90;;;;;;5069853;28;20008;-72
2022/09/08 08:01:32;;;;;;;;;;;17.90;99.90;;;;;;5045934;28;20040;-70
2022/09/08 08:04:01;;;;;;;;;;;17.90;99.90;;;;;;5071044;28;20288;-71
2022/09/08 08:06:34;;;;;;;;;;;17.90;99.90;;;;;;5067051;28;20284;-70
2022/09/08 08:09:18;;;;;;;;;;;17.90;99.90;;;;;;5070187;28;19927;-71
2022/09/08 08:12:14;;;;;;;;;;;17.80;99.90;;;;;;5067317;28;19928;-71
2022/09/08 08:14:41;;;;;;;;;;;17.80;99.90;;;;;;5044077;28;19916;-70
2022/09/08 08:17:18;;;;;;;;;;;17.80;99.90;;;;;;5068906;28;19956;-70
2022/09/08 08:19:47;;;;;;;;;;;17.80;99.90;;;;;;5068340;28;19912;-73
2022/09/08 08:22:14;;;;;;;;;;;17.80;99.90;;;;;;5070620;28;19937;-70
2022/09/08 08:24:47;;;;;;;;;;;17.80;99.90;;;;;;5061996;28;19921;-69
2022/09/08 08:27:36;;;;;;;;;;;17.80;99.90;;;;;;5050252;28;19970;-69
2022/09/08 08:30:15;;;;;;;;;;;17.80;99.90;;;;;;5066616;28;19997;-69
2022/09/08 08:32:45;;;;;;;;;;;17.80;99.90;;;;;;5057375;28;19988;-69
2022/09/08 08:35:25;;;;;;;;;;;17.70;99.90;;;;;;5061918;28;20015;-69
2022/09/08 08:37:53;;;;;;;;;;;17.80;99.90;;;;;;5054862;28;19936;-69
2022/09/08 08:40:36;;;;;;;;;;;17.70;99.90;;;;;;5066350;28;19919;-70
2022/09/08 08:43:25;;;;;;;;;;;17.70;99.90;;;;;;5070930;28;19915;-72
2022/09/08 08:45:52;;;;;;;;;;;17.70;99.90;;;;;;5042622;28;20011;-72
2022/09/08 08:48:26;;;;;;;;;;;17.70;99.90;;;;;;5058818;28;19924;-71
2022/09/08 08:50:56;;;;;;;;;;;17.70;99.90;;;;;;5062327;28;20061;-71
2022/09/08 08:53:31;;;;;;;;;;;17.70;99.90;;;;;;5054107;28;19913;-71
2022/09/08 08:56:12;;;;;;;;;;;17.70;99.90;;;;;;5066275;28;19923;-71
2022/09/08 08:58:57;;;;;;;;;;;17.70;99.90;;;;;;5072907;28;19908;-70
2022/09/08 09:01:38;;;;;;;;;;;17.70;99.90;;;;;;5060144;28;20327;-70
2022/09/08 09:04:23;;;;;;;;;;;17.80;99.90;;;;;;5063026;28;19948;-72
2022/09/08 09:07:10;;;;;;;;;;;17.70;99.90;;;;;;5070528;28;20384;-71
2022/09/08 09:09:46;;;;;;;;;;;17.70;99.90;;;;;;5014816;28;19908;-71
2022/09/08 09:12:25;;;;;;;;;;;17.80;99.90;;;;;;5072182;28;19912;-71
2022/09/08 09:15:07;;;;;;;;;;;17.70;99.90;;;;;;5056974;28;19981;-71
2022/09/08 09:17:51;;;;;;;;;;;17.70;99.90;;;;;;5071376;28;20300;-71
2022/09/08 09:20:36;;;;;;;;;;;17.80;99.90;;;;;;5071472;28;20033;-72
2022/09/08 09:23:12;;;;;;;;;;;17.80;99.90;;;;;;5071621;28;20087;-70
2022/09/08 09:25:59;;;;;;;;;;;17.70;99.90;;;;;;5071744;28;19999;-70
2022/09/08 09:28:38;;;;;;;;;;;17.70;99.90;;;;;;5049434;28;19951;-70
2022/09/08 09:31:28;;;;;;;;;;;17.70;99.90;;;;;;5052382;28;19909;-72
2022/09/08 09:34:01;;;;;;;;;;;17.80;99.90;;;;;;5052403;28;19954;-71
2022/09/08 09:36:46;;;;;;;;;;;17.80;99.90;;;;;;5070062;28;19922;-71
2022/09/08 09:39:14;;;;;;;;;;;17.80;99.90;;;;;;5069832;28;19980;-71
2022/09/08 09:41:59;;;;;;;;;;;17.80;99.90;;;;;;5071488;28;20333;-72
2022/09/08 09:44:32;;;;;;;;;;;17.80;99.90;;;;;;5071340;28;19950;-73
2022/09/08 09:47:01;;;;;;;;;;;17.80;99.90;;;;;;5052177;28;19913;-71
2022/09/08 09:49:37;;;;;;;;;;;17.80;99.90;;;;;;5064157;28;19935;-71
2022/09/08 09:52:15;;;;;;;;;;;17.80;99.90;;;;;;5070724;28;19967;-71
2022/09/08 09:54:51;;;;;;;;;;;17.80;99.90;;;;;;5071167;28;19943;-72
2022/09/08 09:57:43;;;;;;;;;;;17.80;99.90;;;;;;5071273;28;19922;-71
2022/09/08 10:00:13;;;;;;;;;;;17.80;99.90;;;;;;5055714;28;19943;-71
2022/09/08 10:02:40;;;;;;;;;;;17.80;99.90;;;;;;5072212;28;20015;-72
2022/09/08 10:05:25;;;;;;;;;;;17.80;99.90;;;;;;5071614;28;20273;-72
2022/09/08 10:08:04;;;;;;;;;;;17.80;99.90;;;;;;5071630;28;19928;-71
2022/09/08 10:10:54;;;;;;;;;;;17.80;99.90;;;;;;5071203;28;19908;-71
2022/09/08 10:13:28;;;;;;;;;;;17.80;99.90;;;;;;5071368;28;19912;-71
2022/09/08 10:16:06;;;;;;;;;;;17.80;99.90;;;;;;5070939;28;19947;-71
2022/09/08 10:18:42;;;;;;;;;;;17.80;99.90;;;;;;5064686;28;20007;-71
2022/09/08 10:21:21;;;;;;;;;;;17.80;99.90;;;;;;5070130;28;20267;-72
2022/09/08 10:23:53;;;;;;;;;;;17.80;99.90;;;;;;5070943;28;20398;-72
2022/09/08 10:26:26;;;;;;;;;;;17.70;99.90;;;;;;5070129;28;19912;-71
2022/09/08 10:29:30;;;;;;;;;;;17.70;99.90;;;;;;5070367;28;20365;-73
2022/09/08 10:32:21;;;;;;;;;;;17.70;99.90;;;;;;5033624;28;19917;-71
2022/09/08 10:34:48;;;;;;;;;;;17.70;99.90;;;;;;5043008;28;20065;-71
2022/09/08 10:37:21;;;;;;;;;;;17.70;99.90;;;;;;5033821;28;19912;-72
2022/09/08 10:39:59;;;;;;;;;;;17.70;99.90;;;;;;5049389;28;19974;-72
2022/09/08 10:42:40;;;;;;;;;;;17.70;99.90;;;;;;5054902;28;19921;-70
2022/09/08 10:45:25;;;;;;;;;;;17.70;99.90;;;;;;5059562;28;19916;-72
2022/09/08 10:48:12;;;;;;;;;;;17.70;99.90;;;;;;5058684;28;19928;-72
2022/09/08 10:50:50;;;;;;;;;;;17.70;99.90;;;;;;5058861;28;19999;-71
2022/09/08 10:53:34;;;;;;;;;;;17.60;99.90;;;;;;5062657;28;19932;-71
2022/09/08 10:56:01;;;;;;;;;;;17.70;99.90;;;;;;5069934;28;19994;-70
2022/09/08 10:58:29;;;;;;;;;;;17.70;99.90;;;;;;5063763;28;19912;-72
2022/09/08 11:01:07;;;;;;;;;;;17.70;99.90;;;;;;5058333;28;19932;-71
2022/09/08 11:03:50;;;;;;;;;;;17.70;99.90;;;;;;5052676;28;20340;-70
2022/09/08 11:06:36;;;;;;;;;;;17.70;99.90;;;;;;5059318;28;21289;-70
2022/09/08 11:09:09;;;;;;;;;;;17.60;99.90;;;;;;5062122;28;19917;-71
2022/09/08 11:12:08;;;;;;;;;;;17.60;99.90;;;;;;5060733;28;20042;-71
2022/09/08 11:14:54;;;;;;;;;;;17.50;99.90;;;;;;5037048;28;19912;-72
2022/09/08 11:17:26;;;;;;;;;;;17.50;99.90;;;;;;5060135;28;20395;-71
2022/09/08 11:20:02;;;;;;;;;;;17.50;99.90;;;;;;5061180;28;19908;-71
2022/09/08 11:22:35;;;;;;;;;;;17.50;99.90;;;;;;5058691;28;20392;-71
2022/09/08 11:25:07;;;;;;;;;;;17.40;99.90;;;;;;5062012;28;19931;-71
2022/09/08 11:27:40;;;;;;;;;;;17.40;99.90;;;;;;5060335;28;19964;-71
2022/09/08 11:30:12;;;;;;;;;;;17.40;99.90;;;;;;5064582;28;19920;-71
2022/09/08 11:33:01;;;;;;;;;;;17.40;99.90;;;;;;5041183;28;19969;-70
2022/09/08 11:35:36;;;;;;;;;;;17.40;99.90;;;;;;5042501;28;19955;-70
2022/09/08 11:38:23;;;;;;;;;;;17.40;99.90;;;;;;5050529;28;20269;-70
2022/09/08 11:41:13;;;;;;;;;;;17.40;99.90;;;;;;5057426;28;19935;-70
2022/09/08 11:43:42;;;;;;;;;;;17.40;99.90;;;;;;5070066;28;19943;-72
2022/09/08 11:46:26;;;;;;;;;;;17.40;99.90;;;;;;5064623;28;19932;-72
2022/09/08 11:49:11;;;;;;;;;;;17.40;99.90;;;;;;5059653;28;19913;-71
2022/09/08 11:52:04;;;;;;;;;;;17.40;99.90;;;;;;5060069;28;19919;-72
2022/09/08 11:54:31;;;;;;;;;;;17.40;99.90;;;;;;5056964;28;19924;-70
2022/09/08 11:57:16;;;;;;;;;;;17.40;99.90;;;;;;5059298;28;19909;-70
2022/09/08 11:59:46;;;;;;;;;;;17.40;99.90;;;;;;5063403;28;19912;-70
2022/09/08 12:02:31;;;;;;;;;;;17.40;99.90;;;;;;5061884;28;19913;-72
2022/09/08 12:05:18;;;;;;;;;;;17.40;99.90;;;;;;5064951;28;19978;-73
2022/09/08 12:08:07;;;;;;;;;;;17.40;99.90;;;;;;5059407;28;19958;-72
2022/09/08 12:10:37;;;;;;;;;;;17.30;99.90;;;;;;5028781;28;20000;-72
2022/09/08 12:13:16;;;;;;;;;;;17.30;99.90;;;;;;5062934;28;19919;-71
2022/09/08 12:15:52;;;;;;;;;;;17.20;99.90;;;;;;5069434;28;19959;-70
2022/09/08 12:18:25;;;;;;;;;;;17.20;99.90;;;;;;5069897;28;20384;-70
2022/09/08 12:20:57;;;;;;;;;;;17.20;99.90;;;;;;5069849;28;19936;-69
2022/09/08 12:23:32;;;;;;;;;;;17.10;99.90;;;;;;5069633;28;19991;-71
2022/09/08 12:26:01;;;;;;;;;;;17.10;99.90;;;;;;5069236;28;19949;-70
2022/09/08 12:28:31;;;;;;;;;;;17.10;99.90;;;;;;5069282;28;19960;-71
2022/09/08 12:31:16;;;;;;;;;;;17.00;99.90;;;;;;5069650;28;19912;-70
2022/09/08 12:33:47;;;;;;;;;;;17.10;99.90;;;;;;5051166;28;20292;-70
2022/09/08 12:36:32;;;;;;;;;;;17.00;99.90;;;;;;5068381;28;19951;-70
2022/09/08 12:39:22;;;;;;;;;;;16.90;99.90;;;;;;5070987;28;19912;-70
2022/09/08 12:41:55;;;;;;;;;;;16.90;99.90;;;;;;5062688;28;19915;-69
2022/09/08 12:44:40;;;;;;;;;;;16.90;99.90;;;;;;5073851;28;19915;-71
2022/09/08 12:47:23;;;;;;;;;;;16.80;99.90;;;;;;5073213;28;19920;-70
2022/09/08 12:50:16;;;;;;;;;;;16.80;99.90;;;;;;5071792;28;20353;-71
2022/09/08 12:52:50;;;;;;;;;;;16.80;99.90;;;;;;5068734;28;19920;-70
2022/09/08 12:55:32;;;;;;;;;;;16.70;99.90;;;;;;5073114;28;19989;-70
2022/09/08 12:58:01;;;;;;;;;;;16.70;99.90;;;;;;5072783;28;20324;-71
2022/09/08 13:00:50;;;;;;;;;;;16.70;99.90;;;;;;5072569;28;19908;-70
2022/09/08 13:03:20;;;;;;;;;;;16.70;99.90;;;;;;5072630;28;19920;-70
2022/09/08 13:06:11;;;;;;;;;;;16.70;99.90;;;;;;5072424;28;19920;-70
2022/09/08 13:08:56;;;;;;;;;;;16.70;99.90;;;;;;5070227;28;19920;-69
2022/09/08 13:11:43;;;;;;;;;;;16.70;99.90;;;;;;5072007;28;19980;-70
2022/09/08 13:14:10;;;;;;;;;;;16.70;99.90;;;;;;5072709;28;19958;-69
2022/09/08 13:16:44;;;;;;;;;;;16.70;99.90;;;;;;5072258;28;20283;-70
2022/09/08 13:19:30;;;;;;;;;;;16.70;99.90;;;;;;5072284;28;19917;-71
2022/09/08 13:22:15;;;;;;;;;;;16.70;99.90;;;;;;5072645;28;19912;-72
2022/09/08 13:24:48;;;;;;;;;;;16.80;99.90;;;;;;5072382;28;20033;-70
2022/09/08 13:27:15;;;;;;;;;;;16.70;99.90;;;;;;5072595;28;19923;-71
2022/09/08 13:29:50;;;;;;;;;;;16.70;99.90;;;;;;5072070;28;19978;-70
2022/09/08 13:32:42;;;;;;;;;;;16.70;99.90;;;;;;5072014;28;20233;-70
2022/09/08 13:35:17;;;;;;;;;;;16.70;99.90;;;;;;5072608;28;19912;-69
2022/09/08 13:37:56;;;;;;;;;;;16.70;99.90;;;;;;5072705;28;19995;-71
2022/09/08 13:40:26;;;;;;;;;;;16.70;99.90;;;;;;5052040;28;19909;-71
2022/09/08 13:43:02;;;;;;;;;;;16.70;99.90;;;;;;5065371;28;19920;-71
2022/09/08 13:45:48;;;;;;;;;;;16.60;99.90;;;;;;5071481;28;20499;-69
2022/09/08 13:48:27;;;;;;;;;;;16.70;99.90;;;;;;5071346;28;19981;-70
2022/09/08 13:50:54;;;;;;;;;;;16.80;99.90;;;;;;5071576;28;19908;-68
2022/09/08 13:53:32;;;;;;;;;;;16.80;99.90;;;;;;5071911;28;20301;-69
2022/09/08 13:56:16;;;;;;;;;;;16.70;99.90;;;;;;5071651;28;19917;-70
2022/09/08 13:58:44;;;;;;;;;;;16.70;99.90;;;;;;5071346;28;19908;-70
2022/09/08 14:01:30;;;;;;;;;;;16.70;99.90;;;;;;5052141;28;19916;-69
2022/09/08 14:03:58;;;;;;;;;;;16.70;99.90;;;;;;5052115;28;19947;-71
2022/09/08 14:06:45;;;;;;;;;;;16.70;99.90;;;;;;5063080;28;19921;-70
2022/09/08 14:09:31;;;;;;;;;;;16.70;99.90;;;;;;5071017;28;19909;-69
2022/09/08 14:12:06;;;;;;;;;;;16.70;99.90;;;;;;5071631;28;20041;-71
2022/09/08 14:14:36;;;;;;;;;;;16.70;99.90;;;;;;5071199;28;19958;-70
2022/09/08 14:17:07;;;;;;;;;;;16.70;99.90;;;;;;5071429;28;19920;-70
2022/09/08 14:19:36;;;;;;;;;;;16.70;99.90;;;;;;5071045;28;19909;-70
2022/09/08 14:22:13;;;;;;;;;;;16.70;99.90;;;;;;5071025;28;19917;-71
2022/09/08 14:24:40;;;;;;;;;;;16.70;99.90;;;;;;5071764;28;19947;-71
2022/09/08 14:27:26;;;;;;;;;;;16.60;99.90;;;;;;5071343;28;20010;-71
2022/09/08 14:30:05;;;;;;;;;;;16.70;99.90;;;;;;5049629;28;19962;-70
2022/09/08 14:32:41;;;;;;;;;;;16.60;99.90;;;;;;5070789;28;19912;-71
2022/09/08 14:35:27;;;;;;;;;;;16.60;99.90;;;;;;5071461;28;19913;-70
2022/09/08 14:37:57;;;;;;;;;;;16.60;99.90;;;;;;5070869;28;20358;-70
2022/09/08 14:40:26;;;;;;;;;;;16.70;99.90;;;;;;5071040;28;19931;-70
2022/09/08 14:43:06;;;;;;;;;;;16.60;99.90;;;;;;5070328;28;20034;-70
2022/09/08 14:45:42;;;;;;;;;;;16.60;99.90;;;;;;5070809;28;20361;-70
2022/09/08 14:48:19;;;;;;;;;;;16.70;99.90;;;;;;5069585;28;19977;-72
2022/09/08 14:50:49;;;;;;;;;;;16.70;99.90;;;;;;5070822;28;19991;-69
2022/09/08 14:53:25;;;;;;;;;;;16.70;99.90;;;;;;5070143;28;20002;-70
2022/09/08 14:55:52;;;;;;;;;;;16.70;99.90;;;;;;5070811;28;19909;-70